createdAt,value
2023-01-19T00:00:34.181Z,0.57
2023-01-19T00:01:34.160Z,0.58
2023-01-19T00:02:34.195Z,0.60
2023-01-19T00:03:34.176Z,0.61
2023-01-19T00:04:34.186Z,0.62
2023-01-19T00:05:34.200Z,0.63
2023-01-19T00:06:34.273Z,0.66
2023-01-19T00:07:34.221Z,0.68
2023-01-19T00:08:34.236Z,0.69
2023-01-19T00:09:34.251Z,0.71
2023-01-19T00:10:34.260Z,0.73
2023-01-19T00:11:34.278Z,0.74
2023-01-19T00:12:34.277Z,0.74
2023-01-19T00:13:34.288Z,0.76
2023-01-19T00:14:34.294Z,0.76
2023-01-19T00:15:34.321Z,0.72
2023-01-19T00:16:34.377Z,0.73
2023-01-19T00:17:34.330Z,0.73
2023-01-19T00:18:34.359Z,0.72
2023-01-19T00:19:34.353Z,0.76
2023-01-19T00:20:34.370Z,0.76
2023-01-19T00:21:34.376Z,0.78
2023-01-19T00:22:34.393Z,0.79
2023-01-19T00:23:34.399Z,0.79
2023-01-19T00:24:34.413Z,0.80
2023-01-19T00:25:34.422Z,0.84
2023-01-19T00:26:34.432Z,0.80
2023-01-19T00:27:34.445Z,0.80
2023-01-19T00:28:34.455Z,0.79
2023-01-19T00:29:34.473Z,0.78
2023-01-19T00:30:34.477Z,0.78
2023-01-19T00:31:34.498Z,0.79
2023-01-19T00:32:34.503Z,0.80
2023-01-19T00:33:34.514Z,0.80
2023-01-19T00:34:34.525Z,0.78
2023-01-19T00:35:34.554Z,0.78
2023-01-19T00:36:34.551Z,0.78
2023-01-19T00:37:34.556Z,0.78
2023-01-19T00:38:34.566Z,0.78
2023-01-19T00:39:34.587Z,0.76
2023-01-19T00:40:34.592Z,0.76
2023-01-19T00:41:34.595Z,0.75
2023-01-19T00:42:34.609Z,0.77
2023-01-19T00:43:34.627Z,0.76
2023-01-19T00:44:34.627Z,0.79
2023-01-19T00:45:34.688Z,0.80
2023-01-19T00:46:34.645Z,0.82
2023-01-19T00:47:34.658Z,0.84
2023-01-19T00:48:34.666Z,0.86
2023-01-19T00:49:34.677Z,0.87
2023-01-19T00:50:34.691Z,0.89
2023-01-19T00:51:34.699Z,0.90
2023-01-19T00:52:34.711Z,0.91
2023-01-19T00:53:34.724Z,0.90
2023-01-19T00:54:34.731Z,0.90
2023-01-19T00:55:34.733Z,0.92
2023-01-19T00:56:34.747Z,0.93
2023-01-19T00:57:34.769Z,0.93
2023-01-19T00:58:34.803Z,0.96
2023-01-19T00:59:34.797Z,0.95
2023-01-19T01:00:34.801Z,0.98
2023-01-19T01:01:44.846Z,0.99
2023-01-19T01:02:35.035Z,0.98
2023-01-19T01:03:34.838Z,0.99
2023-01-19T01:04:34.855Z,1.00
2023-01-19T01:05:34.866Z,1.02
2023-01-19T01:06:34.886Z,1.02
2023-01-19T01:07:34.887Z,1.02
2023-01-19T01:08:34.894Z,1.02
2023-01-19T01:09:34.913Z,1.02
2023-01-19T01:10:34.910Z,1.06
2023-01-19T01:11:34.931Z,1.09
2023-01-19T01:12:34.938Z,1.06
2023-01-19T01:13:34.957Z,1.06
2023-01-19T01:14:34.961Z,1.07
2023-01-19T01:15:34.989Z,1.08
2023-01-19T01:16:35.041Z,1.09
2023-01-19T01:17:35.004Z,1.08
2023-01-19T01:18:35.010Z,1.09
2023-01-19T01:19:35.023Z,1.11
2023-01-19T01:20:35.038Z,1.14
2023-01-19T01:21:35.050Z,1.16
2023-01-19T01:22:35.064Z,1.16
2023-01-19T01:23:35.088Z,1.19
2023-01-19T01:24:35.085Z,1.18
2023-01-19T01:25:35.091Z,1.18
2023-01-19T01:26:35.109Z,1.20
2023-01-19T01:27:35.122Z,1.21
2023-01-19T01:28:35.131Z,1.19
2023-01-19T01:29:35.148Z,1.22
2023-01-19T01:30:35.162Z,1.21
2023-01-19T01:31:35.206Z,1.23
2023-01-19T01:49:35.835Z,1.30
2023-01-19T01:50:35.394Z,1.29
2023-01-19T01:51:35.407Z,1.32
2023-01-19T01:52:35.425Z,1.34
2023-01-19T01:53:35.438Z,1.36
2023-01-19T01:54:35.445Z,1.35
2023-01-19T01:55:35.448Z,1.35
2023-01-19T01:56:35.469Z,1.33
2023-01-19T01:57:35.494Z,1.33
2023-01-19T01:58:35.477Z,1.37
2023-01-19T01:59:35.486Z,1.39
2023-01-19T02:00:35.488Z,1.39
2023-01-19T02:01:35.620Z,1.40
2023-01-19T02:02:35.514Z,1.43
2023-01-19T02:03:35.522Z,1.40
2023-01-19T02:04:35.533Z,1.39
2023-01-19T02:05:35.537Z,1.40
2023-01-19T02:06:35.555Z,1.39
2023-01-19T02:07:35.575Z,1.41
2023-01-19T02:08:35.566Z,1.40
2023-01-19T02:09:35.575Z,1.41
2023-01-19T02:10:35.599Z,1.41
2023-01-19T02:11:35.603Z,1.40
2023-01-19T02:12:35.603Z,1.42
2023-01-19T02:13:35.616Z,1.44
2023-01-19T02:14:35.631Z,1.42
2023-01-19T02:15:35.641Z,1.43
2023-01-19T02:16:35.668Z,1.40
2023-01-19T02:17:35.653Z,1.40
2023-01-19T02:18:35.665Z,1.42
2023-01-19T02:19:35.672Z,1.41
2023-01-19T02:20:35.694Z,1.40
2023-01-19T02:21:35.698Z,1.42
2023-01-19T02:22:35.718Z,1.44
2023-01-19T02:23:35.732Z,1.45
2023-01-19T02:24:35.743Z,1.48
2023-01-19T02:25:35.760Z,1.46
2023-01-19T02:26:35.764Z,1.48
2023-01-19T02:27:35.772Z,1.50
2023-01-19T02:28:35.788Z,1.52
2023-01-19T02:29:35.798Z,1.52
2023-01-19T02:30:35.834Z,1.54
2023-01-19T02:31:35.815Z,1.53
2023-01-19T02:32:35.822Z,1.56
2023-01-19T02:33:35.830Z,1.52
2023-01-19T02:34:35.837Z,1.50
2023-01-19T02:35:35.843Z,1.53
2023-01-19T02:36:35.847Z,1.54
2023-01-19T02:37:35.856Z,1.55
2023-01-19T02:38:35.863Z,1.57
2023-01-19T02:39:35.869Z,1.54
2023-01-19T02:40:35.886Z,1.55
2023-01-19T02:41:35.898Z,1.56
2023-01-19T02:42:35.914Z,1.57
2023-01-19T02:43:35.921Z,1.58
2023-01-19T02:44:35.935Z,1.58
2023-01-19T02:45:35.949Z,1.57
2023-01-19T02:46:35.955Z,1.61
2023-01-19T02:47:35.967Z,1.60
2023-01-19T02:48:36.005Z,1.65
2023-01-19T02:49:35.995Z,1.65
2023-01-19T02:50:36.012Z,1.65
2023-01-19T02:51:36.020Z,1.65
2023-01-19T02:52:36.029Z,1.69
2023-01-19T02:53:36.040Z,1.67
2023-01-19T02:54:36.055Z,1.68
2023-01-19T02:55:36.065Z,1.68
2023-01-19T02:56:36.086Z,1.69
2023-01-19T02:57:36.109Z,1.65
2023-01-19T02:58:36.116Z,1.68
2023-01-19T02:59:36.125Z,1.67
2023-01-19T03:00:36.124Z,1.69
2023-01-19T03:01:36.276Z,1.69
2023-01-19T03:02:36.171Z,1.67
2023-01-19T03:03:36.147Z,1.67
2023-01-19T03:04:36.171Z,1.68
2023-01-19T03:05:36.178Z,1.66
2023-01-19T03:06:36.181Z,1.67
2023-01-19T03:07:36.192Z,1.68
2023-01-19T03:08:36.207Z,1.71
2023-01-19T03:09:36.223Z,1.69
2023-01-19T03:10:36.236Z,1.72
2023-01-19T03:11:36.241Z,1.74
2023-01-19T03:12:36.247Z,1.76
2023-01-19T03:13:36.266Z,1.78
2023-01-19T03:14:36.283Z,1.80
2023-01-19T03:15:36.361Z,1.80
2023-01-19T03:16:36.323Z,1.83
2023-01-19T03:17:36.317Z,1.82
2023-01-19T03:18:36.334Z,1.78
2023-01-19T03:19:36.344Z,1.77
2023-01-19T03:20:36.351Z,1.75
2023-01-19T03:21:36.359Z,1.74
2023-01-19T03:22:36.373Z,1.74
2023-01-19T03:23:36.381Z,1.74
2023-01-19T03:24:37.087Z,1.76
2023-01-19T03:25:36.415Z,1.78
2023-01-19T03:26:36.426Z,1.80
2023-01-19T03:27:36.436Z,1.81
2023-01-19T03:28:36.463Z,1.82
2023-01-19T03:29:36.472Z,1.84
2023-01-19T03:30:36.509Z,1.86
2023-01-19T03:31:36.500Z,1.87
2023-01-19T03:32:36.517Z,1.87
2023-01-19T03:33:36.532Z,1.88
2023-01-19T03:34:36.534Z,1.88
2023-01-19T03:35:36.552Z,1.91
2023-01-19T03:36:36.585Z,1.89
2023-01-19T03:37:36.574Z,1.85
2023-01-19T03:38:36.588Z,1.86
2023-01-19T03:39:36.598Z,1.85
2023-01-19T03:40:36.608Z,1.84
2023-01-19T03:41:36.615Z,1.84
2023-01-19T03:42:36.629Z,1.86
2023-01-19T03:43:36.643Z,1.87
2023-01-19T03:44:36.647Z,1.87
2023-01-19T03:45:36.656Z,1.87
2023-01-19T03:46:36.674Z,1.88
2023-01-19T03:47:36.714Z,1.89
2023-01-19T03:48:36.711Z,1.88
2023-01-19T03:49:36.719Z,1.88
2023-01-19T03:50:36.722Z,1.88
2023-01-19T03:51:36.755Z,1.92
2023-01-19T03:52:36.758Z,1.93
2023-01-19T03:53:36.778Z,1.93
2023-01-19T03:54:36.799Z,1.88
2023-01-19T03:55:36.808Z,1.87
2023-01-19T03:56:36.815Z,1.88
2023-01-19T03:57:36.822Z,1.87
2023-01-19T03:58:36.837Z,1.87
2023-01-19T03:59:36.849Z,1.89
2023-01-19T04:00:36.863Z,1.91
2023-01-19T04:01:36.934Z,1.93
2023-01-19T04:02:36.915Z,1.93
2023-01-19T04:03:36.901Z,1.93
2023-01-19T04:04:36.910Z,1.95
2023-01-19T04:05:36.924Z,1.97
2023-01-19T04:06:36.939Z,1.98
2023-01-19T04:07:36.952Z,1.97
2023-01-19T04:08:36.981Z,1.98
2023-01-19T04:09:36.976Z,1.98
2023-01-19T04:10:36.996Z,2.03
2023-01-19T04:11:37.004Z,2.05
2023-01-19T04:12:37.022Z,2.05
2023-01-19T04:13:37.034Z,2.05
2023-01-19T04:14:37.053Z,2.06
2023-01-19T04:15:37.123Z,2.08
2023-01-19T04:16:37.072Z,2.09
2023-01-19T04:17:37.085Z,2.07
2023-01-19T04:18:37.101Z,2.06
2023-01-19T04:19:37.123Z,2.05
2023-01-19T04:20:37.137Z,2.08
2023-01-19T04:21:37.154Z,2.08
2023-01-19T04:22:37.167Z,2.07
2023-01-19T04:23:37.194Z,2.07
2023-01-19T04:24:37.207Z,2.08
2023-01-19T04:25:38.828Z,2.10
2023-01-19T04:26:37.223Z,2.11
2023-01-19T04:27:37.222Z,2.12
2023-01-19T04:28:37.324Z,2.10
2023-01-19T04:29:37.263Z,2.07
2023-01-19T04:30:37.261Z,2.06
2023-01-19T04:31:37.333Z,2.04
2023-01-19T04:32:37.296Z,2.04
2023-01-19T04:33:37.298Z,2.05
2023-01-19T04:34:37.304Z,2.07
2023-01-19T04:35:37.313Z,2.06
2023-01-19T04:36:37.331Z,2.08
2023-01-19T04:37:37.346Z,2.11
2023-01-19T04:38:37.364Z,2.13
2023-01-19T04:39:37.383Z,2.15
2023-01-19T04:40:37.381Z,2.21
2023-01-19T04:41:37.396Z,2.20
2023-01-19T04:42:37.414Z,2.19
2023-01-19T04:43:37.426Z,2.19
2023-01-19T04:44:37.442Z,2.20
2023-01-19T04:45:37.455Z,2.19
2023-01-19T04:46:37.522Z,2.20
2023-01-19T04:47:37.484Z,2.19
2023-01-19T04:48:37.486Z,2.17
2023-01-19T04:49:37.504Z,2.17
2023-01-19T04:50:37.517Z,2.16
2023-01-19T04:51:37.530Z,2.20
2023-01-19T04:52:37.531Z,2.20
2023-01-19T04:53:37.554Z,2.19
2023-01-19T04:54:37.581Z,2.19
2023-01-19T04:55:37.575Z,2.20
2023-01-19T04:56:37.587Z,2.19
2023-01-19T04:57:37.607Z,2.20
2023-01-19T04:58:37.617Z,2.18
2023-01-19T04:59:37.635Z,2.18
2023-01-19T05:00:37.647Z,2.19
2023-01-19T05:01:37.671Z,2.18
2023-01-19T05:02:37.691Z,2.16
2023-01-19T05:03:37.676Z,2.15
2023-01-19T05:04:37.695Z,2.14
2023-01-19T05:05:37.717Z,2.12
2023-01-19T05:06:37.723Z,2.11
2023-01-19T05:07:37.734Z,2.10
2023-01-19T05:08:37.741Z,2.12
2023-01-19T05:09:37.747Z,2.14
2023-01-19T05:10:37.753Z,2.16
2023-01-19T05:11:37.760Z,2.18
2023-01-19T05:12:37.763Z,2.19
2023-01-19T05:13:37.784Z,2.21
2023-01-19T05:14:37.794Z,2.21
2023-01-19T05:15:37.807Z,2.22
2023-01-19T05:16:37.815Z,2.22
2023-01-19T05:17:37.831Z,2.21
2023-01-19T05:18:37.852Z,2.21
2023-01-19T05:19:37.876Z,2.21
2023-01-19T05:20:37.879Z,2.23
2023-01-19T05:21:37.898Z,2.23
2023-01-19T05:22:37.906Z,2.25
2023-01-19T05:23:37.913Z,2.25
2023-01-19T05:24:37.920Z,2.26
2023-01-19T05:25:37.943Z,2.28
2023-01-19T05:26:37.955Z,2.25
2023-01-19T05:27:37.953Z,2.25
2023-01-19T05:28:37.988Z,2.25
2023-01-19T05:29:37.975Z,2.24
2023-01-19T05:30:38.020Z,2.23
2023-01-19T05:31:38.026Z,2.23
2023-01-19T05:32:38.019Z,2.24
2023-01-19T05:33:38.018Z,2.26
2023-01-19T05:34:38.037Z,2.26
2023-01-19T05:35:38.051Z,2.27
2023-01-19T05:36:38.063Z,2.31
2023-01-19T05:37:38.063Z,2.33
2023-01-19T05:38:38.072Z,2.31
2023-01-19T05:39:38.105Z,2.31
2023-01-19T05:40:38.103Z,2.33
2023-01-19T05:41:38.110Z,2.33
2023-01-19T05:42:38.128Z,2.35
2023-01-19T05:43:38.135Z,2.36
2023-01-19T05:44:38.155Z,2.35
2023-01-19T05:45:38.165Z,2.37
2023-01-19T05:46:38.206Z,2.37
2023-01-19T05:47:38.192Z,2.35
2023-01-19T05:48:38.194Z,2.33
2023-01-19T05:49:38.201Z,2.33
2023-01-19T05:50:38.219Z,2.32
2023-01-19T05:51:38.229Z,2.34
2023-01-19T05:52:38.243Z,2.33
2023-01-19T05:53:38.249Z,2.33
2023-01-19T05:54:38.309Z,2.33
2023-01-19T05:55:38.277Z,2.32
2023-01-19T05:56:38.279Z,2.34
2023-01-19T05:57:38.331Z,2.36
2023-01-19T05:58:38.296Z,2.38
2023-01-19T05:59:38.314Z,2.39
2023-01-19T06:00:38.333Z,2.40
2023-01-19T06:01:39.801Z,2.39
2023-01-19T06:02:38.390Z,2.40
2023-01-19T06:03:38.374Z,2.40
2023-01-19T06:04:38.379Z,2.40
2023-01-19T06:05:38.402Z,2.42
2023-01-19T06:06:38.405Z,2.42
2023-01-19T06:07:38.412Z,2.42
2023-01-19T06:08:38.434Z,2.38
2023-01-19T06:09:38.451Z,2.38
2023-01-19T06:10:38.457Z,2.38
2023-01-19T06:11:38.462Z,2.37
2023-01-19T06:12:38.481Z,2.38
2023-01-19T06:13:40.193Z,2.39
2023-01-19T06:14:38.505Z,2.38
2023-01-19T06:15:38.530Z,2.36
2023-01-19T06:16:38.657Z,2.35
2023-01-19T06:17:38.556Z,2.37
2023-01-19T06:18:38.560Z,2.35
2023-01-19T06:19:38.581Z,2.39
2023-01-19T06:20:38.591Z,2.42
2023-01-19T06:21:38.595Z,2.45
2023-01-19T06:22:38.606Z,2.47
2023-01-19T06:23:38.621Z,2.46
2023-01-19T06:24:38.633Z,2.46
2023-01-19T06:25:38.652Z,2.43
2023-01-19T06:26:38.661Z,2.43
2023-01-19T06:27:38.677Z,2.42
2023-01-19T06:28:38.692Z,2.40
2023-01-19T06:29:38.719Z,2.39
2023-01-19T06:30:38.759Z,2.40
2023-01-19T06:31:38.760Z,2.40
2023-01-19T06:32:38.739Z,2.42
2023-01-19T06:33:38.755Z,2.44
2023-01-19T06:34:38.767Z,2.43
2023-01-19T06:35:38.779Z,2.43
2023-01-19T06:36:38.794Z,2.41
2023-01-19T06:37:38.832Z,2.43
2023-01-19T06:38:38.813Z,2.46
2023-01-19T06:39:38.825Z,2.43
2023-01-19T06:40:38.841Z,2.45
2023-01-19T06:41:38.855Z,2.46
2023-01-19T06:42:38.862Z,2.46
2023-01-19T06:43:38.866Z,2.45
2023-01-19T06:44:38.881Z,2.45
2023-01-19T06:45:38.979Z,2.48
2023-01-19T06:46:38.909Z,2.46
2023-01-19T06:47:38.926Z,2.47
2023-01-19T06:48:38.950Z,2.47
2023-01-19T06:49:38.957Z,2.43
2023-01-19T06:50:38.977Z,2.42
2023-01-19T06:51:39.005Z,2.39
2023-01-19T06:52:38.994Z,2.40
2023-01-19T06:53:39.014Z,2.42
2023-01-19T06:54:39.021Z,2.43
2023-01-19T06:55:39.038Z,2.43
2023-01-19T06:56:39.052Z,2.44
2023-01-19T06:57:39.081Z,2.43
2023-01-19T06:58:39.071Z,2.41
2023-01-19T06:59:39.089Z,2.42
2023-01-19T07:00:39.106Z,2.41
2023-01-19T07:01:39.196Z,2.40
2023-01-19T07:02:39.313Z,2.43
2023-01-19T07:03:39.161Z,2.44
2023-01-19T07:04:39.167Z,2.46
2023-01-19T07:05:39.173Z,2.46
2023-01-19T07:06:39.193Z,2.43
2023-01-19T07:07:39.204Z,2.44
2023-01-19T07:08:39.213Z,2.49
2023-01-19T07:09:39.217Z,2.50
2023-01-19T07:11:22.452Z,2.49
2023-01-19T07:11:39.251Z,2.51
2023-01-19T07:12:39.261Z,2.51
2023-01-19T07:13:39.281Z,2.54
2023-01-19T07:14:39.323Z,2.61
2023-01-19T07:15:39.313Z,2.61
2023-01-19T07:16:39.339Z,2.58
2023-01-19T07:17:39.337Z,2.60
2023-01-19T07:18:39.340Z,2.57
2023-01-19T07:19:39.347Z,2.60
2023-01-19T07:20:39.362Z,2.61
2023-01-19T07:21:39.370Z,2.59
2023-01-19T07:22:39.369Z,2.58
2023-01-19T07:23:39.385Z,2.57
2023-01-19T07:24:39.386Z,2.61
2023-01-19T07:25:39.393Z,2.58
2023-01-19T07:26:39.409Z,2.60
2023-01-19T07:27:39.446Z,2.61
2023-01-19T07:28:39.443Z,2.64
2023-01-19T07:29:39.441Z,2.67
2023-01-19T07:30:39.492Z,2.66
2023-01-19T07:31:39.514Z,2.68
2023-01-19T07:32:39.454Z,2.68
2023-01-19T07:33:39.455Z,2.66
2023-01-19T07:34:39.460Z,2.67
2023-01-19T07:35:39.480Z,2.65
2023-01-19T07:36:39.479Z,2.67
2023-01-19T07:37:39.481Z,2.67
2023-01-19T07:38:39.485Z,2.66
2023-01-19T07:39:39.493Z,2.67
2023-01-19T07:40:39.500Z,2.67
2023-01-19T07:41:39.506Z,2.68
2023-01-19T07:42:39.511Z,2.69
2023-01-19T07:43:39.528Z,2.68
2023-01-19T07:44:39.539Z,2.69
2023-01-19T07:45:39.564Z,2.70
2023-01-19T07:46:39.536Z,2.73
2023-01-19T07:47:39.540Z,2.75
2023-01-19T07:48:39.565Z,2.77
2023-01-19T07:49:39.560Z,2.76
2023-01-19T07:50:39.581Z,2.76
2023-01-19T07:51:39.569Z,2.77
2023-01-19T07:52:39.573Z,2.77
2023-01-19T07:53:39.577Z,2.79
2023-01-19T07:54:39.584Z,2.77
2023-01-19T07:55:39.590Z,2.77
2023-01-19T07:56:39.595Z,2.77
2023-01-19T07:57:39.604Z,2.80
2023-01-19T07:58:39.614Z,2.79
2023-01-19T07:59:39.614Z,2.79
2023-01-19T08:00:39.653Z,2.80
2023-01-19T08:01:39.713Z,2.79
2023-01-19T08:02:39.633Z,2.79
2023-01-19T08:03:39.643Z,2.79
2023-01-19T08:04:39.702Z,2.77
2023-01-19T08:05:39.657Z,2.76
2023-01-19T08:06:39.663Z,2.76
2023-01-19T08:07:39.664Z,2.76
2023-01-19T08:08:39.669Z,2.76
2023-01-19T08:09:39.676Z,2.76
2023-01-19T08:10:39.687Z,2.76
2023-01-19T08:11:39.688Z,2.75
2023-01-19T08:12:39.694Z,2.76
2023-01-19T08:13:39.714Z,2.75
2023-01-19T08:14:39.707Z,2.76
2023-01-19T08:15:39.799Z,2.75
2023-01-19T08:16:39.726Z,2.77
2023-01-19T08:17:39.723Z,2.78
2023-01-19T08:18:39.738Z,2.80
2023-01-19T08:19:41.503Z,2.78
2023-01-19T08:20:39.743Z,2.80
2023-01-19T08:21:39.749Z,2.82
2023-01-19T08:22:39.752Z,2.81
2023-01-19T08:23:39.816Z,2.81
2023-01-19T08:24:39.766Z,2.83
2023-01-19T08:25:39.775Z,2.87
2023-01-19T08:26:39.779Z,2.86
2023-01-19T08:27:39.798Z,2.88
2023-01-19T08:28:39.787Z,2.88
2023-01-19T08:29:39.801Z,2.87
2023-01-19T08:30:39.949Z,2.86
2023-01-19T08:31:39.992Z,2.85
2023-01-19T08:32:39.820Z,2.88
2023-01-19T08:33:39.822Z,2.90
2023-01-19T08:34:39.839Z,2.90
2023-01-19T08:35:39.842Z,2.91
2023-01-19T08:36:39.851Z,2.92
2023-01-19T08:37:39.859Z,2.92
2023-01-19T08:38:39.869Z,2.89
2023-01-19T08:39:39.876Z,2.85
2023-01-19T08:40:39.890Z,2.86
2023-01-19T08:41:39.889Z,2.88
2023-01-19T08:42:39.894Z,2.92
2023-01-19T08:43:39.899Z,2.94
2023-01-19T08:44:46.749Z,2.96
2023-01-19T08:45:39.915Z,2.97
2023-01-19T08:46:40.022Z,3.01
2023-01-19T08:47:39.985Z,3.03
2023-01-19T08:48:40.185Z,3.03
2023-01-19T08:49:39.935Z,3.03
2023-01-19T08:50:39.951Z,3.04
2023-01-19T08:51:39.946Z,3.02
2023-01-19T08:52:39.952Z,3.02
2023-01-19T08:53:39.958Z,3.01
2023-01-19T08:54:39.966Z,3.03
2023-01-19T08:55:39.976Z,3.03
2023-01-19T08:56:39.978Z,3.01
2023-01-19T08:57:39.986Z,3.01
2023-01-19T08:58:39.993Z,3.00
2023-01-19T08:59:40.002Z,3.01
2023-01-19T09:00:40.004Z,3.02
2023-01-19T09:01:40.167Z,3.02
2023-01-19T09:02:40.107Z,3.06
2023-01-19T09:03:40.025Z,3.04
2023-01-19T09:04:40.030Z,3.03
2023-01-19T09:05:40.047Z,3.01
2023-01-19T09:06:40.051Z,2.99
2023-01-19T09:07:40.051Z,2.97
2023-01-19T09:08:40.057Z,2.96
2023-01-19T09:09:40.067Z,3.00
2023-01-19T09:10:40.067Z,3.00
2023-01-19T09:11:40.073Z,3.02
2023-01-19T09:12:40.088Z,3.05
2023-01-19T09:13:40.094Z,3.09
2023-01-19T09:14:40.107Z,3.10
2023-01-19T09:15:40.159Z,3.15
2023-01-19T09:16:40.112Z,3.16
2023-01-19T09:17:40.119Z,3.16
2023-01-19T09:18:40.124Z,3.17
2023-01-19T09:19:40.142Z,3.21
2023-01-19T09:20:40.139Z,3.21
2023-01-19T09:21:40.147Z,3.23
2023-01-19T09:22:40.162Z,3.23
2023-01-19T09:23:40.158Z,3.22
2023-01-19T09:24:40.162Z,3.26
2023-01-19T09:25:40.168Z,3.24
2023-01-19T09:26:40.174Z,3.23
2023-01-19T09:27:40.184Z,3.23
2023-01-19T09:28:40.194Z,3.24
2023-01-19T09:29:40.193Z,3.23
2023-01-19T09:30:40.224Z,3.20
2023-01-19T09:31:40.291Z,3.16
2023-01-19T09:32:40.214Z,3.17
2023-01-19T09:33:40.218Z,3.17
2023-01-19T09:34:40.232Z,3.16
2023-01-19T09:35:40.237Z,3.15
2023-01-19T09:36:40.235Z,3.16
2023-01-19T09:37:40.243Z,3.16
2023-01-19T09:38:40.251Z,3.15
2023-01-19T09:39:40.287Z,3.17
2023-01-19T09:40:42.008Z,3.16
2023-01-19T09:41:40.276Z,3.17
2023-01-19T09:42:40.280Z,3.17
2023-01-19T09:43:40.279Z,3.17
2023-01-19T09:44:40.284Z,3.18
2023-01-19T09:45:40.289Z,3.19
2023-01-19T09:46:40.366Z,3.20
2023-01-19T09:47:40.302Z,3.16
2023-01-19T09:48:40.317Z,3.16
2023-01-19T09:49:40.320Z,3.17
2023-01-19T09:50:40.320Z,3.17
2023-01-19T09:51:40.328Z,3.16
2023-01-19T09:52:40.332Z,3.17
2023-01-19T09:53:40.338Z,3.16
2023-01-19T09:54:40.346Z,3.17
2023-01-19T09:55:40.353Z,3.18
2023-01-19T09:56:40.361Z,3.20
2023-01-19T09:57:40.364Z,3.20
2023-01-19T09:58:40.377Z,3.23
2023-01-19T09:59:40.379Z,3.26
2023-01-19T10:00:40.495Z,3.28
2023-01-19T10:01:40.510Z,3.30
2023-01-19T10:02:40.517Z,3.34
2023-01-19T10:03:40.402Z,3.36
2023-01-19T10:04:40.405Z,3.39
2023-01-19T10:05:40.412Z,3.39
2023-01-19T10:06:40.421Z,3.43
2023-01-19T10:07:40.424Z,3.43
2023-01-19T10:08:40.432Z,3.46
2023-01-19T10:09:40.436Z,3.49
2023-01-19T10:10:40.446Z,3.49
2023-01-19T10:11:51.762Z,3.52
2023-01-19T10:12:40.483Z,3.52
2023-01-19T10:13:40.473Z,3.50
2023-01-19T10:14:40.479Z,3.52
2023-01-19T10:15:40.469Z,3.54
2023-01-19T10:16:40.478Z,3.53
2023-01-19T10:17:40.485Z,3.53
2023-01-19T10:18:40.488Z,3.55
2023-01-19T10:19:40.499Z,3.58
2023-01-19T10:20:40.504Z,3.58
2023-01-19T10:21:40.505Z,3.61
2023-01-19T10:22:40.516Z,3.65
2023-01-19T10:23:40.524Z,3.66
2023-01-19T10:24:40.541Z,3.68
2023-01-19T10:25:40.567Z,3.67
2023-01-19T10:26:40.568Z,3.69
2023-01-19T10:27:40.544Z,3.74
2023-01-19T10:28:40.547Z,3.76
2023-01-19T10:29:40.563Z,3.74
2023-01-19T10:30:40.645Z,3.76
2023-01-19T10:31:40.667Z,3.77
2023-01-19T10:32:40.572Z,3.79
2023-01-19T10:33:40.582Z,3.86
2023-01-19T10:34:40.602Z,3.87
2023-01-19T10:35:40.589Z,3.90
2023-01-19T10:36:40.627Z,3.89
2023-01-19T10:37:40.640Z,3.91
2023-01-19T10:38:40.625Z,3.99
2023-01-19T10:39:40.647Z,3.99
2023-01-19T10:40:40.651Z,3.99
2023-01-19T10:41:40.688Z,4.05
2023-01-19T10:42:40.655Z,4.06
2023-01-19T10:43:40.665Z,4.07
2023-01-19T10:44:40.728Z,4.11
2023-01-19T10:45:40.724Z,4.13
2023-01-19T10:46:40.681Z,4.15
2023-01-19T10:47:40.686Z,4.19
2023-01-19T10:48:40.699Z,4.21
2023-01-19T10:49:40.767Z,4.20
2023-01-19T10:50:40.710Z,4.25
2023-01-19T10:51:40.712Z,4.26
2023-01-19T10:52:40.776Z,4.30
2023-01-19T10:53:40.731Z,4.31
2023-01-19T10:54:40.729Z,4.33
2023-01-19T10:55:40.736Z,4.32
2023-01-19T10:56:40.768Z,4.36
2023-01-19T10:57:40.774Z,4.31
2023-01-19T10:58:40.781Z,4.30
2023-01-19T10:59:40.799Z,4.24
2023-01-19T11:00:40.891Z,4.26
2023-01-19T11:01:40.905Z,4.28
2023-01-19T11:02:40.854Z,4.21
2023-01-19T11:03:40.799Z,4.24
2023-01-19T11:04:40.862Z,4.21
2023-01-19T11:05:40.814Z,4.21
2023-01-19T11:06:40.826Z,4.20
2023-01-19T11:07:40.831Z,4.22
2023-01-19T11:08:40.839Z,4.21
2023-01-19T11:09:40.845Z,4.18
2023-01-19T11:10:40.850Z,4.14
2023-01-19T11:11:40.865Z,4.12
2023-01-19T11:12:40.864Z,4.10
2023-01-19T11:13:40.880Z,4.09
2023-01-19T11:14:40.885Z,4.11
2023-01-19T11:15:40.888Z,4.11
2023-01-19T11:16:40.908Z,4.14
2023-01-19T11:17:40.904Z,4.14
2023-01-19T11:18:40.926Z,4.17
2023-01-19T11:19:40.926Z,4.19
2023-01-19T11:20:40.927Z,4.21
2023-01-19T11:21:40.940Z,4.25
2023-01-19T11:22:40.955Z,4.30
2023-01-19T11:23:40.953Z,4.29
2023-01-19T11:24:40.958Z,4.28
2023-01-19T11:25:40.969Z,4.26
2023-01-19T11:26:40.983Z,4.26
2023-01-19T11:27:40.988Z,4.30
2023-01-19T11:28:42.477Z,4.35
2023-01-19T11:29:41.015Z,4.32
2023-01-19T11:30:41.019Z,4.36
2023-01-19T11:31:41.058Z,4.38
2023-01-19T11:32:41.022Z,4.39
2023-01-19T11:33:41.027Z,4.37
2023-01-19T11:34:41.035Z,4.35
2023-01-19T11:35:41.039Z,4.35
2023-01-19T11:36:41.053Z,4.32
2023-01-19T11:37:41.054Z,4.28
2023-01-19T11:38:41.079Z,4.25
2023-01-19T11:39:41.066Z,4.26
2023-01-19T11:40:41.079Z,4.25
2023-01-19T11:41:41.079Z,4.25
2023-01-19T11:42:41.082Z,4.24
2023-01-19T11:43:48.891Z,4.22
2023-01-19T11:44:41.100Z,4.20
2023-01-19T11:45:41.140Z,4.18
2023-01-19T11:46:41.107Z,4.18
2023-01-19T11:47:41.120Z,4.15
2023-01-19T11:48:41.123Z,4.11
2023-01-19T11:49:41.127Z,4.06
2023-01-19T11:50:41.143Z,4.05
2023-01-19T11:51:41.153Z,4.06
2023-01-19T11:52:43.020Z,4.05
2023-01-19T11:53:41.159Z,4.08
2023-01-19T11:54:41.168Z,4.07
2023-01-19T11:55:41.172Z,4.11
2023-01-19T11:56:41.180Z,4.12
2023-01-19T11:57:41.201Z,4.11
2023-01-19T11:58:41.236Z,4.11
2023-01-19T11:59:41.221Z,4.10
2023-01-19T12:00:41.212Z,4.06
2023-01-19T12:01:41.217Z,4.04
2023-01-19T12:02:41.223Z,4.04
2023-01-19T12:03:41.249Z,4.05
2023-01-19T12:04:41.242Z,4.05
2023-01-19T12:05:41.255Z,4.08
2023-01-19T12:06:41.256Z,4.10
2023-01-19T12:07:41.261Z,4.11
2023-01-19T12:08:41.264Z,4.11
2023-01-19T12:09:41.266Z,4.13
2023-01-19T12:10:41.279Z,4.13
2023-01-19T12:11:41.281Z,4.15
2023-01-19T12:12:41.302Z,4.16
2023-01-19T12:13:41.297Z,4.18
2023-01-19T12:14:41.306Z,4.18
2023-01-19T12:15:41.315Z,4.16
2023-01-19T12:16:41.362Z,4.16
2023-01-19T12:17:41.348Z,4.14
2023-01-19T12:18:41.354Z,4.14
2023-01-19T12:19:41.355Z,4.16
2023-01-19T12:20:41.350Z,4.14
2023-01-19T12:21:41.347Z,4.10
2023-01-19T12:22:41.355Z,4.12
2023-01-19T12:23:41.371Z,4.14
2023-01-19T12:24:42.295Z,4.14
2023-01-19T12:25:41.380Z,4.14
2023-01-19T12:26:41.389Z,4.16
2023-01-19T12:27:41.405Z,4.14
2023-01-19T12:28:41.397Z,4.13
2023-01-19T12:29:41.659Z,4.13
2023-01-19T12:30:41.509Z,4.14
2023-01-19T12:31:41.546Z,4.19
2023-01-19T12:32:41.433Z,4.23
2023-01-19T12:33:41.443Z,4.29
2023-01-19T12:34:41.471Z,4.30
2023-01-19T12:35:41.443Z,4.36
2023-01-19T12:36:41.451Z,4.38
2023-01-19T12:37:41.466Z,4.41
2023-01-19T12:38:41.468Z,4.44
2023-01-19T12:39:41.474Z,4.46
2023-01-19T12:40:41.485Z,4.47
2023-01-19T12:41:41.504Z,4.48
2023-01-19T12:42:41.496Z,4.50
2023-01-19T12:43:41.509Z,4.54
2023-01-19T12:44:41.528Z,4.53
2023-01-19T12:45:41.531Z,4.55
2023-01-19T12:46:41.534Z,4.62
2023-01-19T12:47:41.540Z,4.64
2023-01-19T12:48:41.546Z,4.67
2023-01-19T12:49:41.556Z,4.65
2023-01-19T12:50:41.562Z,4.60
2023-01-19T12:51:41.571Z,4.57
2023-01-19T12:52:41.589Z,4.56
2023-01-19T12:53:41.587Z,4.57
2023-01-19T12:54:41.592Z,4.61
2023-01-19T12:55:41.599Z,4.58
2023-01-19T12:56:41.612Z,4.54
2023-01-19T12:57:41.622Z,4.55
2023-01-19T12:58:41.628Z,4.53
2023-01-19T12:59:41.634Z,4.48
2023-01-19T13:00:41.644Z,4.48
2023-01-19T13:01:41.722Z,4.45
2023-01-19T13:02:41.720Z,4.44
2023-01-19T13:03:41.668Z,4.47
2023-01-19T13:04:41.689Z,4.43
2023-01-19T13:05:41.689Z,4.43
2023-01-19T13:06:41.694Z,4.31
2023-01-19T13:07:41.704Z,4.26
2023-01-19T13:08:41.708Z,4.21
2023-01-19T13:09:41.712Z,4.21
2023-01-19T13:10:41.727Z,4.24
2023-01-19T13:11:42.029Z,4.27
2023-01-19T13:12:41.731Z,4.30
2023-01-19T13:13:41.742Z,4.26
2023-01-19T13:14:41.744Z,4.30
2023-01-19T13:15:41.784Z,4.29
2023-01-19T13:16:41.761Z,4.25
2023-01-19T13:17:41.777Z,4.17
2023-01-19T13:18:41.789Z,4.15
2023-01-19T13:19:41.790Z,4.13
2023-01-19T13:20:41.796Z,4.13
2023-01-19T13:21:44.318Z,4.12
2023-01-19T13:22:41.810Z,4.10
2023-01-19T13:23:41.819Z,4.12
2023-01-19T13:24:41.824Z,4.10
2023-01-19T13:25:41.830Z,4.14
2023-01-19T13:26:41.836Z,4.11
2023-01-19T13:27:41.840Z,4.07
2023-01-19T13:28:41.855Z,4.08
2023-01-19T13:29:41.861Z,4.05
2023-01-19T13:30:42.025Z,4.03
2023-01-19T13:31:41.976Z,4.05
2023-01-19T13:32:41.888Z,4.04
2023-01-19T13:33:41.892Z,4.04
2023-01-19T13:34:41.935Z,4.06
2023-01-19T13:35:41.919Z,4.07